CCU weather

Netaji Subhash Chandra Bose International Airport
Kolkata, West Bengal, India

Public forecast

Using degrees Celsius for public forecast. Weather courtesy of forecast.io.

Current aviation weather report (METAR) for Netaji Subhash Chandra Bose International Airport

Retrieved 2020/02/28 08:30 UTC (37 minutes ago):

VECC 280830Z 33006KT 3500 HZ FEW020 SCT100 27/17 Q1012 NOSIG

Aviation forecast (TAF) for Netaji Subhash Chandra Bose International Airport

Retrieved 2020/02/28 06:42 UTC (2 hours ago):

TAF VECC 280500Z 2806/2912 35005KT 3500 HZ NSC BECMG 2808/2810 FEW100 BECMG 2818/2820 00000KT 2600 HZ NSC BECMG 2900/2902 1400 BR BECMG 2903/2905 35005KT 2500 HZ BECMG 2908/2910 3500 HZ